sensor_id;sensor_type;location;lat;lon;timestamp;temperature;humidity
65985;HTU21D;52748;51.112;5.880;2023-06-10T00:00:56;26.76;49.25
65985;HTU21D;52748;51.112;5.880;2023-06-10T00:03:22;26.72;49.37
65985;HTU21D;52748;51.112;5.880;2023-06-10T00:05:49;26.71;49.37
65985;HTU21D;52748;51.112;5.880;2023-06-10T00:08:15;26.70;49.41
65985;HTU21D;52748;51.112;5.880;2023-06-10T00:10:41;26.69;49.45
65985;HTU21D;52748;51.112;5.880;2023-06-10T00:13:07;26.68;49.50
65985;HTU21D;52748;51.112;5.880;2023-06-10T00:15:37;26.70;49.56
65985;HTU21D;52748;51.112;5.880;2023-06-10T00:18:04;26.71;49.44
65985;HTU21D;52748;51.112;5.880;2023-06-10T00:20:31;26.69;49.41
65985;HTU21D;52748;51.112;5.880;2023-06-10T00:22:58;26.67;49.41
65985;HTU21D;52748;51.112;5.880;2023-06-10T00:25:24;26.68;49.53
65985;HTU21D;52748;51.112;5.880;2023-06-10T00:27:51;26.68;49.47
65985;HTU21D;52748;51.112;5.880;2023-06-10T00:30:17;26.69;49.38
65985;HTU21D;52748;51.112;5.880;2023-06-10T00:32:43;26.71;49.50
65985;HTU21D;52748;51.112;5.880;2023-06-10T00:35:09;26.71;49.24
65985;HTU21D;52748;51.112;5.880;2023-06-10T00:37:35;26.70;49.34
65985;HTU21D;52748;51.112;5.880;2023-06-10T00:40:05;26.69;49.37
65985;HTU21D;52748;51.112;5.880;2023-06-10T00:42:31;26.70;49.49
65985;HTU21D;52748;51.112;5.880;2023-06-10T00:44:57;26.70;49.51
65985;HTU21D;52748;51.112;5.880;2023-06-10T00:47:25;26.70;49.36
65985;HTU21D;52748;51.112;5.880;2023-06-10T00:49:51;26.69;49.34
65985;HTU21D;52748;51.112;5.880;2023-06-10T00:52:18;26.69;49.35
65985;HTU21D;52748;51.112;5.880;2023-06-10T00:54:45;26.68;49.50
65985;HTU21D;52748;51.112;5.880;2023-06-10T00:57:12;26.68;49.38
65985;HTU21D;52748;51.112;5.880;2023-06-10T00:59:48;26.65;49.58
65985;HTU21D;52748;51.112;5.880;2023-06-10T01:02:14;26.63;49.74
65985;HTU21D;52748;51.112;5.880;2023-06-10T01:04:40;26.62;49.69
65985;HTU21D;52748;51.112;5.880;2023-06-10T01:07:24;26.61;49.63
65985;HTU21D;52748;51.112;5.880;2023-06-10T01:10:02;26.57;49.72
65985;HTU21D;52748;51.112;5.880;2023-06-10T01:14:55;26.55;49.66
65985;HTU21D;52748;51.112;5.880;2023-06-10T01:17:23;26.53;49.69
65985;HTU21D;52748;51.112;5.880;2023-06-10T01:19:56;26.52;49.70
65985;HTU21D;52748;51.112;5.880;2023-06-10T01:22:26;26.53;49.78
65985;HTU21D;52748;51.112;5.880;2023-06-10T01:24:58;26.53;49.69
65985;HTU21D;52748;51.112;5.880;2023-06-10T01:27:30;26.55;49.47
65985;HTU21D;52748;51.112;5.880;2023-06-10T01:30:10;26.52;49.45
65985;HTU21D;52748;51.112;5.880;2023-06-10T01:32:45;26.52;49.59
65985;HTU21D;52748;51.112;5.880;2023-06-10T01:35:12;26.51;49.53
65985;HTU21D;52748;51.112;5.880;2023-06-10T01:37:40;26.52;49.60
65985;HTU21D;52748;51.112;5.880;2023-06-10T01:40:08;26.54;49.50
65985;HTU21D;52748;51.112;5.880;2023-06-10T01:42:35;26.55;49.47
65985;HTU21D;52748;51.112;5.880;2023-06-10T01:45:01;26.57;49.27
65985;HTU21D;52748;51.112;5.880;2023-06-10T01:47:27;26.55;49.27
65985;HTU21D;52748;51.112;5.880;2023-06-10T01:49:53;26.53;49.44
65985;HTU21D;52748;51.112;5.880;2023-06-10T01:52:19;26.50;49.44
65985;HTU21D;52748;51.112;5.880;2023-06-10T01:54:45;26.49;49.47
65985;HTU21D;52748;51.112;5.880;2023-06-10T01:57:11;26.48;49.49
65985;HTU21D;52748;51.112;5.880;2023-06-10T01:59:37;26.49;49.47
65985;HTU21D;52748;51.112;5.880;2023-06-10T02:02:04;26.52;49.44
65985;HTU21D;52748;51.112;5.880;2023-06-10T02:04:31;26.48;49.42
65985;HTU21D;52748;51.112;5.880;2023-06-10T02:06:59;26.49;49.55
65985;HTU21D;52748;51.112;5.880;2023-06-10T02:09:24;26.50;49.66
65985;HTU21D;52748;51.112;5.880;2023-06-10T02:11:50;26.50;49.50
65985;HTU21D;52748;51.112;5.880;2023-06-10T02:14:17;26.50;49.38
65985;HTU21D;52748;51.112;5.880;2023-06-10T02:16:42;26.48;49.39
65985;HTU21D;52748;51.112;5.880;2023-06-10T02:19:10;26.46;49.54
65985;HTU21D;52748;51.112;5.880;2023-06-10T02:21:36;26.43;49.66
65985;HTU21D;52748;51.112;5.880;2023-06-10T02:24:02;26.41;49.79
65985;HTU21D;52748;51.112;5.880;2023-06-10T02:26:28;26.45;49.71
65985;HTU21D;52748;51.112;5.880;2023-06-10T02:28:58;26.45;49.55
65985;HTU21D;52748;51.112;5.880;2023-06-10T02:31:24;26.43;49.57
65985;HTU21D;52748;51.112;5.880;2023-06-10T02:33:51;26.41;49.56
65985;HTU21D;52748;51.112;5.880;2023-06-10T02:36:17;26.41;49.69
65985;HTU21D;52748;51.112;5.880;2023-06-10T02:38:43;26.39;49.66
65985;HTU21D;52748;51.112;5.880;2023-06-10T02:41:09;26.36;49.75
65985;HTU21D;52748;51.112;5.880;2023-06-10T02:43:35;26.38;49.73
65985;HTU21D;52748;51.112;5.880;2023-06-10T02:46:02;26.38;49.75
65985;HTU21D;52748;51.112;5.880;2023-06-10T02:48:28;26.38;49.57
65985;HTU21D;52748;51.112;5.880;2023-06-10T02:50:55;26.36;49.75
65985;HTU21D;52748;51.112;5.880;2023-06-10T02:53:31;26.35;49.89
65985;HTU21D;52748;51.112;5.880;2023-06-10T02:56:03;26.34;49.81
65985;HTU21D;52748;51.112;5.880;2023-06-10T02:58:29;26.34;49.85
65985;HTU21D;52748;51.112;5.880;2023-06-10T03:00:56;26.33;49.75
65985;HTU21D;52748;51.112;5.880;2023-06-10T03:03:22;26.31;49.75
65985;HTU21D;52748;51.112;5.880;2023-06-10T03:05:57;26.31;49.71
65985;HTU21D;52748;51.112;5.880;2023-06-10T03:08:24;26.32;49.82
65985;HTU21D;52748;51.112;5.880;2023-06-10T03:10:51;26.30;49.75
65985;HTU21D;52748;51.112;5.880;2023-06-10T03:13:18;26.32;49.66
65985;HTU21D;52748;51.112;5.880;2023-06-10T03:15:44;26.31;49.60
65985;HTU21D;52748;51.112;5.880;2023-06-10T03:18:14;26.32;49.59
65985;HTU21D;52748;51.112;5.880;2023-06-10T03:20:41;26.28;49.61
65985;HTU21D;52748;51.112;5.880;2023-06-10T03:23:09;26.27;49.78
65985;HTU21D;52748;51.112;5.880;2023-06-10T03:25:35;26.27;49.60
65985;HTU21D;52748;51.112;5.880;2023-06-10T03:28:01;26.25;49.69
65985;HTU21D;52748;51.112;5.880;2023-06-10T03:30:28;26.24;49.62
65985;HTU21D;52748;51.112;5.880;2023-06-10T03:32:54;26.25;49.62
65985;HTU21D;52748;51.112;5.880;2023-06-10T03:35:23;26.25;49.56
65985;HTU21D;52748;51.112;5.880;2023-06-10T03:37:50;26.23;49.60
65985;HTU21D;52748;51.112;5.880;2023-06-10T03:40:16;26.24;49.69
65985;HTU21D;52748;51.112;5.880;2023-06-10T03:42:45;26.26;49.65
65985;HTU21D;52748;51.112;5.880;2023-06-10T03:45:13;26.25;49.66
65985;HTU21D;52748;51.112;5.880;2023-06-10T03:47:39;26.23;49.57
65985;HTU21D;52748;51.112;5.880;2023-06-10T03:50:09;26.22;49.68
65985;HTU21D;52748;51.112;5.880;2023-06-10T03:52:37;26.22;49.55
65985;HTU21D;52748;51.112;5.880;2023-06-10T03:55:03;26.21;49.56
65985;HTU21D;52748;51.112;5.880;2023-06-10T03:57:30;26.21;49.43
65985;HTU21D;52748;51.112;5.880;2023-06-10T03:59:56;26.24;49.43
65985;HTU21D;52748;51.112;5.880;2023-06-10T04:02:22;26.25;49.29
65985;HTU21D;52748;51.112;5.880;2023-06-10T04:04:49;26.25;49.22
65985;HTU21D;52748;51.112;5.880;2023-06-10T04:07:14;26.27;49.22
65985;HTU21D;52748;51.112;5.880;2023-06-10T04:09:40;26.26;49.01
65985;HTU21D;52748;51.112;5.880;2023-06-10T04:12:07;26.24;49.24
65985;HTU21D;52748;51.112;5.880;2023-06-10T04:14:35;26.22;49.31
65985;HTU21D;52748;51.112;5.880;2023-06-10T04:17:02;26.21;49.39
65985;HTU21D;52748;51.112;5.880;2023-06-10T04:19:29;26.19;49.44
65985;HTU21D;52748;51.112;5.880;2023-06-10T04:21:57;26.18;49.50
65985;HTU21D;52748;51.112;5.880;2023-06-10T04:24:23;26.17;49.54
65985;HTU21D;52748;51.112;5.880;2023-06-10T04:26:49;26.16;49.48
65985;HTU21D;52748;51.112;5.880;2023-06-10T04:29:15;26.17;49.51
65985;HTU21D;52748;51.112;5.880;2023-06-10T04:31:41;26.19;49.41
65985;HTU21D;52748;51.112;5.880;2023-06-10T04:34:08;26.18;49.47
65985;HTU21D;52748;51.112;5.880;2023-06-10T04:36:34;26.18;49.41
65985;HTU21D;52748;51.112;5.880;2023-06-10T04:39:00;26.20;49.37
65985;HTU21D;52748;51.112;5.880;2023-06-10T04:41:29;26.19;49.47
65985;HTU21D;52748;51.112;5.880;2023-06-10T04:43:55;26.19;49.48
65985;HTU21D;52748;51.112;5.880;2023-06-10T04:46:21;26.17;49.44
65985;HTU21D;52748;51.112;5.880;2023-06-10T04:48:47;26.17;49.57
65985;HTU21D;52748;51.112;5.880;2023-06-10T04:51:13;26.17;49.56
65985;HTU21D;52748;51.112;5.880;2023-06-10T04:53:39;26.17;49.45
65985;HTU21D;52748;51.112;5.880;2023-06-10T04:56:05;26.16;49.50
65985;HTU21D;52748;51.112;5.880;2023-06-10T04:58:33;26.17;49.60
65985;HTU21D;52748;51.112;5.880;2023-06-10T05:00:59;26.16;49.54
65985;HTU21D;52748;51.112;5.880;2023-06-10T05:03:26;26.15;49.66
65985;HTU21D;52748;51.112;5.880;2023-06-10T05:05:52;26.13;49.66
65985;HTU21D;52748;51.112;5.880;2023-06-10T05:08:17;26.12;49.76
65985;HTU21D;52748;51.112;5.880;2023-06-10T05:10:43;26.12;49.82
65985;HTU21D;52748;51.112;5.880;2023-06-10T05:13:09;26.15;49.73
65985;HTU21D;52748;51.112;5.880;2023-06-10T05:15:35;26.18;49.60
65985;HTU21D;52748;51.112;5.880;2023-06-10T05:18:01;26.18;49.60
65985;HTU21D;52748;51.112;5.880;2023-06-10T05:20:29;26.17;49.76
65985;HTU21D;52748;51.112;5.880;2023-06-10T05:22:55;26.16;49.68
65985;HTU21D;52748;51.112;5.880;2023-06-10T05:25:21;26.18;49.76
65985;HTU21D;52748;51.112;5.880;2023-06-10T05:27:48;26.20;49.80
65985;HTU21D;52748;51.112;5.880;2023-06-10T05:30:14;26.18;49.79
65985;HTU21D;52748;51.112;5.880;2023-06-10T05:32:40;26.15;49.99
65985;HTU21D;52748;51.112;5.880;2023-06-10T05:35:06;26.16;50.09
65985;HTU21D;52748;51.112;5.880;2023-06-10T05:37:34;26.15;50.30
65985;HTU21D;52748;51.112;5.880;2023-06-10T05:40:00;26.18;50.51
65985;HTU21D;52748;51.112;5.880;2023-06-10T05:42:26;26.24;50.40
65985;HTU21D;52748;51.112;5.880;2023-06-10T05:44:52;26.21;50.74
65985;HTU21D;52748;51.112;5.880;2023-06-10T05:47:18;26.21;50.87
65985;HTU21D;52748;51.112;5.880;2023-06-10T05:49:43;26.23;50.88
65985;HTU21D;52748;51.112;5.880;2023-06-10T05:52:11;26.23;51.21
65985;HTU21D;52748;51.112;5.880;2023-06-10T05:54:36;26.23;51.59
65985;HTU21D;52748;51.112;5.880;2023-06-10T05:57:02;26.22;51.91
65985;HTU21D;52748;51.112;5.880;2023-06-10T05:59:29;26.22;51.91
65985;HTU21D;52748;51.112;5.880;2023-06-10T06:01:54;26.24;51.47
65985;HTU21D;52748;51.112;5.880;2023-06-10T06:04:20;26.23;51.14
65985;HTU21D;52748;51.112;5.880;2023-06-10T06:06:46;26.24;51.00
65985;HTU21D;52748;51.112;5.880;2023-06-10T06:09:12;26.23;51.02
65985;HTU21D;52748;51.112;5.880;2023-06-10T06:11:38;26.23;51.16
65985;HTU21D;52748;51.112;5.880;2023-06-10T06:14:04;26.24;51.18
65985;HTU21D;52748;51.112;5.880;2023-06-10T06:16:30;26.26;51.45
65985;HTU21D;52748;51.112;5.880;2023-06-10T06:18:55;26.28;51.39
65985;HTU21D;52748;51.112;5.880;2023-06-10T06:21:21;26.31;51.03
65985;HTU21D;52748;51.112;5.880;2023-06-10T06:23:47;26.30;50.47
65985;HTU21D;52748;51.112;5.880;2023-06-10T06:26:13;26.31;50.76
65985;HTU21D;52748;51.112;5.880;2023-06-10T06:28:39;26.32;51.79
65985;HTU21D;52748;51.112;5.880;2023-06-10T06:31:06;26.33;51.30
65985;HTU21D;52748;51.112;5.880;2023-06-10T06:33:32;26.34;51.33
65985;HTU21D;52748;51.112;5.880;2023-06-10T06:35:58;26.32;51.75
65985;HTU21D;52748;51.112;5.880;2023-06-10T06:38:26;26.34;51.72
65985;HTU21D;52748;51.112;5.880;2023-06-10T06:40:52;26.35;51.75
65985;HTU21D;52748;51.112;5.880;2023-06-10T06:43:18;26.36;51.94
65985;HTU21D;52748;51.112;5.880;2023-06-10T06:46:02;26.39;52.21
65985;HTU21D;52748;51.112;5.880;2023-06-10T06:48:28;26.39;52.23
65985;HTU21D;52748;51.112;5.880;2023-06-10T06:50:54;26.40;52.36
65985;HTU21D;52748;51.112;5.880;2023-06-10T06:53:21;26.40;52.76
65985;HTU21D;52748;51.112;5.880;2023-06-10T06:55:47;26.39;53.01
65985;HTU21D;52748;51.112;5.880;2023-06-10T06:58:13;26.39;53.30
65985;HTU21D;52748;51.112;5.880;2023-06-10T07:00:39;26.40;52.59
65985;HTU21D;52748;51.112;5.880;2023-06-10T07:03:04;26.42;51.62
65985;HTU21D;52748;51.112;5.880;2023-06-10T07:05:30;26.43;51.97
65985;HTU21D;52748;51.112;5.880;2023-06-10T07:07:56;26.42;52.14
65985;HTU21D;52748;51.112;5.880;2023-06-10T07:10:24;26.43;51.42
65985;HTU21D;52748;51.112;5.880;2023-06-10T07:12:51;26.41;51.01
65985;HTU21D;52748;51.112;5.880;2023-06-10T07:15:17;26.42;50.95
65985;HTU21D;52748;51.112;5.880;2023-06-10T07:17:43;26.43;50.74
65985;HTU21D;52748;51.112;5.880;2023-06-10T07:20:10;26.45;51.27
65985;HTU21D;52748;51.112;5.880;2023-06-10T07:22:36;26.46;51.42
65985;HTU21D;52748;51.112;5.880;2023-06-10T07:25:05;26.49;50.61
65985;HTU21D;52748;51.112;5.880;2023-06-10T07:27:31;26.49;50.72
65985;HTU21D;52748;51.112;5.880;2023-06-10T07:29:56;26.51;50.74
65985;HTU21D;52748;51.112;5.880;2023-06-10T07:32:22;26.52;50.86
65985;HTU21D;52748;51.112;5.880;2023-06-10T07:34:50;26.54;51.01
65985;HTU21D;52748;51.112;5.880;2023-06-10T07:37:16;26.54;51.01
65985;HTU21D;52748;51.112;5.880;2023-06-10T07:39:42;26.54;50.87
65985;HTU21D;52748;51.112;5.880;2023-06-10T07:42:09;26.58;50.37
65985;HTU21D;52748;51.112;5.880;2023-06-10T07:44:35;26.58;50.81
65985;HTU21D;52748;51.112;5.880;2023-06-10T07:47:01;26.57;50.97
65985;HTU21D;52748;51.112;5.880;2023-06-10T07:49:26;26.56;51.20
65985;HTU21D;52748;51.112;5.880;2023-06-10T07:51:54;26.55;51.36
65985;HTU21D;52748;51.112;5.880;2023-06-10T07:54:21;26.56;51.19
65985;HTU21D;52748;51.112;5.880;2023-06-10T07:56:47;26.58;51.13
65985;HTU21D;52748;51.112;5.880;2023-06-10T07:59:14;26.60;51.16
65985;HTU21D;52748;51.112;5.880;2023-06-10T08:01:45;26.61;51.49
65985;HTU21D;52748;51.112;5.880;2023-06-10T08:04:11;26.62;51.67
65985;HTU21D;52748;51.112;5.880;2023-06-10T08:06:37;26.61;51.71
65985;HTU21D;52748;51.112;5.880;2023-06-10T08:09:03;26.57;52.01
65985;HTU21D;52748;51.112;5.880;2023-06-10T08:11:29;26.56;52.30
65985;HTU21D;52748;51.112;5.880;2023-06-10T08:13:55;26.55;52.46
65985;HTU21D;52748;51.112;5.880;2023-06-10T08:16:21;26.55;52.40
65985;HTU21D;52748;51.112;5.880;2023-06-10T08:18:47;26.57;52.43
65985;HTU21D;52748;51.112;5.880;2023-06-10T08:21:12;26.61;51.06
65985;HTU21D;52748;51.112;5.880;2023-06-10T08:23:38;26.63;50.40
65985;HTU21D;52748;51.112;5.880;2023-06-10T08:26:04;26.67;49.33
65985;HTU21D;52748;51.112;5.880;2023-06-10T08:28:30;26.68;49.24
65985;HTU21D;52748;51.112;5.880;2023-06-10T08:30:56;26.70;49.30
65985;HTU21D;52748;51.112;5.880;2023-06-10T08:33:22;26.75;49.34
65985;HTU21D;52748;51.112;5.880;2023-06-10T08:35:47;26.75;49.50
65985;HTU21D;52748;51.112;5.880;2023-06-10T08:38:13;26.73;49.77
65985;HTU21D;52748;51.112;5.880;2023-06-10T08:40:39;26.75;49.89
65985;HTU21D;52748;51.112;5.880;2023-06-10T08:43:07;26.78;49.95
65985;HTU21D;52748;51.112;5.880;2023-06-10T08:45:36;26.77;50.17
65985;HTU21D;52748;51.112;5.880;2023-06-10T08:48:06;26.75;50.30
65985;HTU21D;52748;51.112;5.880;2023-06-10T08:50:35;26.75;50.06
65985;HTU21D;52748;51.112;5.880;2023-06-10T08:53:08;26.76;49.84
65985;HTU21D;52748;51.112;5.880;2023-06-10T08:55:37;26.75;49.41
65985;HTU21D;52748;51.112;5.880;2023-06-10T08:58:04;26.75;47.87
65985;HTU21D;52748;51.112;5.880;2023-06-10T09:00:31;26.79;47.68
65985;HTU21D;52748;51.112;5.880;2023-06-10T09:02:58;26.78;47.54
65985;HTU21D;52748;51.112;5.880;2023-06-10T09:05:24;26.78;47.76
65985;HTU21D;52748;51.112;5.880;2023-06-10T09:07:52;26.79;48.11
65985;HTU21D;52748;51.112;5.880;2023-06-10T09:10:19;26.77;48.55
65985;HTU21D;52748;51.112;5.880;2023-06-10T09:12:45;26.76;48.86
65985;HTU21D;52748;51.112;5.880;2023-06-10T09:15:11;26.75;49.07
65985;HTU21D;52748;51.112;5.880;2023-06-10T09:17:40;26.72;49.33
65985;HTU21D;52748;51.112;5.880;2023-06-10T09:20:07;26.72;49.68
65985;HTU21D;52748;51.112;5.880;2023-06-10T09:22:33;26.68;50.18
65985;HTU21D;52748;51.112;5.880;2023-06-10T09:25:17;26.68;50.68
65985;HTU21D;52748;51.112;5.880;2023-06-10T09:30:24;26.65;51.56
65985;HTU21D;52748;51.112;5.880;2023-06-10T09:32:53;26.64;51.93
65985;HTU21D;52748;51.112;5.880;2023-06-10T09:35:25;26.62;52.14
65985;HTU21D;52748;51.112;5.880;2023-06-10T09:37:59;26.61;52.35
65985;HTU21D;52748;51.112;5.880;2023-06-10T09:40:26;26.60;52.48
65985;HTU21D;52748;51.112;5.880;2023-06-10T09:43:03;26.62;52.62
65985;HTU21D;52748;51.112;5.880;2023-06-10T09:45:32;26.62;52.60
65985;HTU21D;52748;51.112;5.880;2023-06-10T09:47:58;26.61;52.64
65985;HTU21D;52748;51.112;5.880;2023-06-10T09:50:24;26.62;52.63
65985;HTU21D;52748;51.112;5.880;2023-06-10T09:52:51;26.61;52.75
65985;HTU21D;52748;51.112;5.880;2023-06-10T09:55:17;26.62;52.79
65985;HTU21D;52748;51.112;5.880;2023-06-10T09:57:43;26.61;52.75
65985;HTU21D;52748;51.112;5.880;2023-06-10T10:00:14;26.58;52.83
65985;HTU21D;52748;51.112;5.880;2023-06-10T10:02:48;26.57;52.86
65985;HTU21D;52748;51.112;5.880;2023-06-10T10:05:15;26.56;52.93
65985;HTU21D;52748;51.112;5.880;2023-06-10T10:07:42;26.55;52.95
65985;HTU21D;52748;51.112;5.880;2023-06-10T10:10:09;26.55;52.99
65985;HTU21D;52748;51.112;5.880;2023-06-10T10:12:37;26.53;53.01
65985;HTU21D;52748;51.112;5.880;2023-06-10T10:15:06;26.53;52.97
65985;HTU21D;52748;51.112;5.880;2023-06-10T10:17:34;26.52;53.00
65985;HTU21D;52748;51.112;5.880;2023-06-10T10:20:05;26.52;53.01
65985;HTU21D;52748;51.112;5.880;2023-06-10T10:22:43;26.55;52.88
65985;HTU21D;52748;51.112;5.880;2023-06-10T10:25:21;26.54;52.89
65985;HTU21D;52748;51.112;5.880;2023-06-10T10:27:52;26.55;52.92
65985;HTU21D;52748;51.112;5.880;2023-06-10T10:30:21;26.53;52.91
65985;HTU21D;52748;51.112;5.880;2023-06-10T10:33:00;26.53;52.48
65985;HTU21D;52748;51.112;5.880;2023-06-10T10:35:32;26.54;52.08
65985;HTU21D;52748;51.112;5.880;2023-06-10T10:37:58;26.57;52.09
65985;HTU21D;52748;51.112;5.880;2023-06-10T10:40:29;26.61;52.43
65985;HTU21D;52748;51.112;5.880;2023-06-10T10:42:56;26.62;52.53
65985;HTU21D;52748;51.112;5.880;2023-06-10T10:45:23;26.61;52.53
65985;HTU21D;52748;51.112;5.880;2023-06-10T10:47:53;26.62;52.63
65985;HTU21D;52748;51.112;5.880;2023-06-10T10:50:21;26.58;52.79
65985;HTU21D;52748;51.112;5.880;2023-06-10T10:52:58;26.56;52.87
65985;HTU21D;52748;51.112;5.880;2023-06-10T10:55:26;26.56;52.82
65985;HTU21D;52748;51.112;5.880;2023-06-10T10:58:02;26.55;52.86
65985;HTU21D;52748;51.112;5.880;2023-06-10T11:03:04;26.54;52.96
65985;HTU21D;52748;51.112;5.880;2023-06-10T11:05:37;26.53;52.98
65985;HTU21D;52748;51.112;5.880;2023-06-10T11:08:04;26.53;52.98
65985;HTU21D;52748;51.112;5.880;2023-06-10T11:10:35;26.53;52.98
65985;HTU21D;52748;51.112;5.880;2023-06-10T11:13:13;26.56;52.86
65985;HTU21D;52748;51.112;5.880;2023-06-10T11:15:45;26.55;52.78
65985;HTU21D;52748;51.112;5.880;2023-06-10T11:18:15;26.54;52.72
65985;HTU21D;52748;51.112;5.880;2023-06-10T11:31:32;26.57;52.61
65985;HTU21D;52748;51.112;5.880;2023-06-10T11:34:05;26.55;52.65
65985;HTU21D;52748;51.112;5.880;2023-06-10T11:36:34;26.55;52.59
65985;HTU21D;52748;51.112;5.880;2023-06-10T11:39:04;26.55;52.60
65985;HTU21D;52748;51.112;5.880;2023-06-10T11:41:32;26.56;52.54
65985;HTU21D;52748;51.112;5.880;2023-06-10T11:44:12;26.57;52.52
65985;HTU21D;52748;51.112;5.880;2023-06-10T11:46:39;26.55;52.46
65985;HTU21D;52748;51.112;5.880;2023-06-10T11:49:06;26.55;52.52
65985;HTU21D;52748;51.112;5.880;2023-06-10T11:51:34;26.55;52.56
65985;HTU21D;52748;51.112;5.880;2023-06-10T11:54:01;26.55;52.55
65985;HTU21D;52748;51.112;5.880;2023-06-10T11:56:29;26.57;52.51
65985;HTU21D;52748;51.112;5.880;2023-06-10T11:58:57;26.60;52.36
65985;HTU21D;52748;51.112;5.880;2023-06-10T12:01:25;26.61;52.26
65985;HTU21D;52748;51.112;5.880;2023-06-10T12:03:59;26.58;52.30
65985;HTU21D;52748;51.112;5.880;2023-06-10T12:06:25;26.61;52.27
65985;HTU21D;52748;51.112;5.880;2023-06-10T12:08:51;26.61;52.24
65985;HTU21D;52748;51.112;5.880;2023-06-10T12:11:17;26.60;52.30
65985;HTU21D;52748;51.112;5.880;2023-06-10T12:13:48;26.58;52.34
65985;HTU21D;52748;51.112;5.880;2023-06-10T12:16:16;26.57;52.37
65985;HTU21D;52748;51.112;5.880;2023-06-10T12:18:46;26.60;52.30
65985;HTU21D;52748;51.112;5.880;2023-06-10T12:21:38;26.62;52.17
65985;HTU21D;52748;51.112;5.880;2023-06-10T12:24:10;26.62;52.16
65985;HTU21D;52748;51.112;5.880;2023-06-10T12:26:37;26.60;52.21
65985;HTU21D;52748;51.112;5.880;2023-06-10T12:29:21;26.60;52.27
65985;HTU21D;52748;51.112;5.880;2023-06-10T12:32:02;26.60;52.32
65985;HTU21D;52748;51.112;5.880;2023-06-10T12:34:36;26.62;52.24
65985;HTU21D;52748;51.112;5.880;2023-06-10T12:37:05;26.64;52.09
65985;HTU21D;52748;51.112;5.880;2023-06-10T12:39:33;26.65;52.14
65985;HTU21D;52748;51.112;5.880;2023-06-10T12:41:59;26.65;52.07
65985;HTU21D;52748;51.112;5.880;2023-06-10T12:44:29;26.66;52.02
65985;HTU21D;52748;51.112;5.880;2023-06-10T12:46:55;26.67;51.98
65985;HTU21D;52748;51.112;5.880;2023-06-10T12:49:21;26.68;51.93
65985;HTU21D;52748;51.112;5.880;2023-06-10T12:51:47;26.68;51.85
65985;HTU21D;52748;51.112;5.880;2023-06-10T12:54:13;26.68;51.84
65985;HTU21D;52748;51.112;5.880;2023-06-10T12:56:39;26.67;51.91
65985;HTU21D;52748;51.112;5.880;2023-06-10T12:59:05;26.65;51.95
65985;HTU21D;52748;51.112;5.880;2023-06-10T13:01:31;26.67;51.87
65985;HTU21D;52748;51.112;5.880;2023-06-10T13:03:58;26.65;51.88
65985;HTU21D;52748;51.112;5.880;2023-06-10T13:06:24;26.65;52.22
65985;HTU21D;52748;51.112;5.880;2023-06-10T13:08:49;26.63;52.19
65985;HTU21D;52748;51.112;5.880;2023-06-10T13:11:17;26.63;52.21
65985;HTU21D;52748;51.112;5.880;2023-06-10T13:13:42;26.63;52.19
65985;HTU21D;52748;51.112;5.880;2023-06-10T13:16:08;26.62;52.17
65985;HTU21D;52748;51.112;5.880;2023-06-10T13:18:34;26.62;52.18
65985;HTU21D;52748;51.112;5.880;2023-06-10T13:21:03;26.64;52.11
65985;HTU21D;52748;51.112;5.880;2023-06-10T13:23:29;26.67;51.98
65985;HTU21D;52748;51.112;5.880;2023-06-10T13:25:56;26.67;51.98
65985;HTU21D;52748;51.112;5.880;2023-06-10T13:28:23;26.68;51.88
65985;HTU21D;52748;51.112;5.880;2023-06-10T13:30:49;26.69;51.80
65985;HTU21D;52748;51.112;5.880;2023-06-10T13:33:14;26.71;51.79
65985;HTU21D;52748;51.112;5.880;2023-06-10T13:35:40;26.72;51.72
65985;HTU21D;52748;51.112;5.880;2023-06-10T13:38:06;26.73;51.69
65985;HTU21D;52748;51.112;5.880;2023-06-10T13:40:33;26.70;51.77
65985;HTU21D;52748;51.112;5.880;2023-06-10T13:42:58;26.70;51.77
65985;HTU21D;52748;51.112;5.880;2023-06-10T13:45:24;26.72;51.81
65985;HTU21D;52748;51.112;5.880;2023-06-10T13:47:50;26.70;51.82
65985;HTU21D;52748;51.112;5.880;2023-06-10T13:50:17;26.69;51.90
65985;HTU21D;52748;51.112;5.880;2023-06-10T13:52:42;26.69;51.94
65985;HTU21D;52748;51.112;5.880;2023-06-10T13:55:08;26.69;51.98
65985;HTU21D;52748;51.112;5.880;2023-06-10T13:57:34;26.70;51.90
65985;HTU21D;52748;51.112;5.880;2023-06-10T14:00:00;26.72;51.85
65985;HTU21D;52748;51.112;5.880;2023-06-10T14:02:26;26.71;51.90
65985;HTU21D;52748;51.112;5.880;2023-06-10T14:04:52;26.70;51.92
65985;HTU21D;52748;51.112;5.880;2023-06-10T14:07:17;26.68;51.95
65985;HTU21D;52748;51.112;5.880;2023-06-10T14:09:43;26.72;51.88
65985;HTU21D;52748;51.112;5.880;2023-06-10T14:12:09;26.75;51.80
65985;HTU21D;52748;51.112;5.880;2023-06-10T14:14:36;26.73;51.78
65985;HTU21D;52748;51.112;5.880;2023-06-10T14:17:02;26.72;51.85
65985;HTU21D;52748;51.112;5.880;2023-06-10T14:19:30;26.72;51.86
65985;HTU21D;52748;51.112;5.880;2023-06-10T14:21:56;26.76;51.76
65985;HTU21D;52748;51.112;5.880;2023-06-10T14:24:21;26.73;51.79
65985;HTU21D;52748;51.112;5.880;2023-06-10T14:26:47;26.73;51.85
65985;HTU21D;52748;51.112;5.880;2023-06-10T14:29:13;26.72;51.88
65985;HTU21D;52748;51.112;5.880;2023-06-10T14:31:40;26.76;51.84
65985;HTU21D;52748;51.112;5.880;2023-06-10T14:34:06;26.76;51.75
65985;HTU21D;52748;51.112;5.880;2023-06-10T14:36:34;26.76;51.80
65985;HTU21D;52748;51.112;5.880;2023-06-10T14:39:00;26.73;51.85
65985;HTU21D;52748;51.112;5.880;2023-06-10T14:41:26;26.76;51.89
65985;HTU21D;52748;51.112;5.880;2023-06-10T14:43:52;26.75;51.89
65985;HTU21D;52748;51.112;5.880;2023-06-10T14:46:18;26.76;51.87
65985;HTU21D;52748;51.112;5.880;2023-06-10T14:48:46;26.76;51.85
65985;HTU21D;52748;51.112;5.880;2023-06-10T14:51:12;26.75;51.87
65985;HTU21D;52748;51.112;5.880;2023-06-10T14:53:38;26.76;51.88
65985;HTU21D;52748;51.112;5.880;2023-06-10T14:56:04;26.79;51.79
65985;HTU21D;52748;51.112;5.880;2023-06-10T14:58:30;26.81;51.68
65985;HTU21D;52748;51.112;5.880;2023-06-10T15:00:56;26.81;51.59
65985;HTU21D;52748;51.112;5.880;2023-06-10T15:03:22;26.83;51.61
65985;HTU21D;52748;51.112;5.880;2023-06-10T15:05:48;26.82;51.62
65985;HTU21D;52748;51.112;5.880;2023-06-10T15:08:13;26.82;51.66
65985;HTU21D;52748;51.112;5.880;2023-06-10T15:10:40;26.82;51.62
65985;HTU21D;52748;51.112;5.880;2023-06-10T15:13:06;26.80;51.66
65985;HTU21D;52748;51.112;5.880;2023-06-10T15:15:31;26.83;51.60
65985;HTU21D;52748;51.112;5.880;2023-06-10T15:17:57;26.84;51.53
65985;HTU21D;52748;51.112;5.880;2023-06-10T15:20:23;26.84;51.58
65985;HTU21D;52748;51.112;5.880;2023-06-10T15:22:49;26.82;51.63
65985;HTU21D;52748;51.112;5.880;2023-06-10T15:25:14;26.84;51.59
65985;HTU21D;52748;51.112;5.880;2023-06-10T15:27:40;26.86;51.50
65985;HTU21D;52748;51.112;5.880;2023-06-10T15:30:06;26.84;51.56
65985;HTU21D;52748;51.112;5.880;2023-06-10T15:32:32;26.83;51.62
65985;HTU21D;52748;51.112;5.880;2023-06-10T15:34:58;26.83;51.67